createdAt,value
2017-11-06T00:00:25.566Z,10.16
2017-11-06T00:01:06.197Z,10.17
2017-11-06T00:01:46.851Z,10.22
2017-11-06T00:02:27.475Z,10.19
2017-11-06T00:03:08.149Z,10.16
2017-11-06T00:03:48.805Z,10.22
2017-11-06T00:04:29.421Z,10.25
2017-11-06T00:05:10.070Z,10.19
2017-11-06T00:05:50.688Z,10.23
2017-11-06T00:06:31.261Z,10.22
2017-11-06T00:07:11.852Z,10.16
2017-11-06T00:07:52.470Z,10.09
2017-11-06T00:08:33.057Z,10.2
2017-11-06T00:09:13.683Z,10.16
2017-11-06T00:09:54.299Z,10.17
2017-11-06T00:10:34.882Z,10.2
2017-11-06T00:11:15.505Z,10.16
2017-11-06T00:11:56.124Z,10.12
2017-11-06T00:12:36.715Z,10.1
2017-11-06T00:13:17.338Z,10.13
2017-11-06T00:13:58.016Z,10.22
2017-11-06T00:14:38.574Z,10.17
2017-11-06T00:15:19.175Z,10.1
2017-11-06T00:15:59.790Z,10.2
2017-11-06T00:16:40.389Z,10.2
2017-11-06T00:17:20.984Z,10.2
2017-11-06T00:18:01.584Z,10.13
2017-11-06T00:18:42.192Z,10.07
2017-11-06T00:19:22.848Z,10.05
2017-11-06T00:20:03.411Z,10.19
2017-11-06T00:20:44.006Z,10.1
2017-11-06T00:21:24.607Z,10.07
2017-11-06T00:22:05.253Z,10.1
2017-11-06T00:22:45.812Z,10.15
2017-11-06T00:23:26.503Z,10.15
2017-11-06T00:24:07.041Z,10.2
2017-11-06T00:24:47.671Z,10.13
2017-11-06T00:25:28.242Z,10.16
2017-11-06T00:26:08.820Z,10.16
2017-11-06T00:26:49.409Z,10.16
2017-11-06T00:27:30.050Z,10.15
2017-11-06T00:28:10.612Z,10.17
2017-11-06T00:28:51.231Z,10.1
2017-11-06T00:29:31.820Z,10.07
2017-11-06T00:30:12.447Z,10.17
2017-11-06T00:30:53.063Z,10.2
2017-11-06T00:31:33.654Z,10.22
2017-11-06T00:32:14.251Z,10.19
2017-11-06T00:32:54.845Z,10.15
2017-11-06T00:33:35.426Z,10.22
2017-11-06T00:34:16.060Z,10.17
2017-11-06T00:34:56.661Z,10.1
2017-11-06T00:35:37.258Z,10.16
2017-11-06T00:36:17.885Z,10.17
2017-11-06T00:36:58.472Z,10.17
2017-11-06T00:37:39.086Z,10.15
2017-11-06T00:38:19.708Z,10.15
2017-11-06T00:39:00.296Z,10.15
2017-11-06T00:39:40.877Z,10.12
2017-11-06T00:40:21.546Z,10.17
2017-11-06T00:41:02.145Z,10.12
2017-11-06T00:41:42.731Z,10.1
2017-11-06T00:42:23.334Z,10.16
2017-11-06T00:43:03.912Z,10.22
2017-11-06T00:43:44.495Z,10.15
2017-11-06T00:44:25.084Z,10.15
2017-11-06T00:45:05.661Z,10.1
2017-11-06T00:45:46.274Z,10.13
2017-11-06T00:46:26.842Z,10.13
2017-11-06T00:47:07.454Z,10.16
2017-11-06T00:47:48.060Z,10.13
2017-11-06T00:48:28.684Z,10.12
2017-11-06T00:49:09.274Z,10.17
2017-11-06T00:49:49.870Z,10.15
2017-11-06T00:50:30.474Z,10.16
2017-11-06T00:51:11.079Z,10.16
2017-11-06T00:51:51.658Z,10.17
2017-11-06T00:52:32.323Z,10.17
2017-11-06T00:53:12.889Z,10.1
2017-11-06T00:53:53.509Z,10.15
2017-11-06T00:54:34.063Z,10.07
2017-11-06T00:55:14.666Z,10.12
2017-11-06T00:55:55.265Z,10.09
2017-11-06T00:56:35.817Z,10.15
2017-11-06T00:57:16.396Z,10.13
2017-11-06T00:57:57.015Z,10.13
2017-11-06T00:58:37.600Z,10.15
2017-11-06T00:59:18.185Z,10.07
2017-11-06T00:59:58.779Z,10.15
2017-11-06T01:00:39.424Z,10.05
2017-11-06T01:01:19.946Z,10.05
2017-11-06T01:02:00.510Z,10.07
2017-11-06T01:02:41.088Z,9.98
2017-11-06T01:03:21.682Z,10.02
2017-11-06T01:04:02.332Z,9.95
2017-11-06T01:04:42.904Z,10.04
2017-11-06T01:05:23.535Z,9.95
2017-11-06T01:06:04.123Z,10.01
2017-11-06T01:06:44.718Z,9.97
2017-11-06T01:07:25.315Z,9.97
2017-11-06T01:08:05.909Z,10.02
2017-11-06T01:08:46.532Z,10.01
2017-11-06T01:09:27.153Z,9.95
2017-11-06T01:10:07.746Z,10.04
2017-11-06T01:10:48.355Z,9.95
2017-11-06T01:11:28.970Z,9.97
2017-11-06T01:12:09.612Z,9.94
2017-11-06T01:12:50.166Z,9.97
2017-11-06T01:13:30.776Z,9.92
2017-11-06T01:14:11.360Z,9.94
2017-11-06T01:14:51.953Z,9.94
2017-11-06T01:15:32.539Z,9.99
2017-11-06T01:16:13.122Z,9.89
2017-11-06T01:16:53.731Z,9.86
2017-11-06T01:17:34.322Z,9.92
2017-11-06T01:18:14.909Z,9.87
2017-11-06T01:18:55.523Z,9.89
2017-11-06T01:19:36.072Z,9.95
2017-11-06T01:20:16.647Z,9.87
2017-11-06T01:20:57.251Z,9.82
2017-11-06T01:21:37.833Z,9.87
2017-11-06T01:22:18.408Z,9.95
2017-11-06T01:22:58.960Z,9.79
2017-11-06T01:23:39.539Z,9.84
2017-11-06T01:24:20.120Z,9.86
2017-11-06T01:25:00.722Z,9.84
2017-11-06T01:25:41.308Z,9.86
2017-11-06T01:26:21.881Z,9.86
2017-11-06T01:27:02.486Z,9.83
2017-11-06T01:27:43.064Z,9.89
2017-11-06T01:28:23.672Z,9.82
2017-11-06T01:29:04.288Z,9.8
2017-11-06T01:29:44.906Z,9.84
2017-11-06T01:30:25.499Z,9.84
2017-11-06T01:31:06.082Z,9.83
2017-11-06T01:31:46.732Z,9.86
2017-11-06T01:32:27.291Z,9.79
2017-11-06T01:33:07.880Z,9.77
2017-11-06T01:33:48.495Z,9.77
2017-11-06T01:34:29.112Z,9.8
2017-11-06T01:35:09.781Z,9.76
2017-11-06T01:35:50.415Z,9.76
2017-11-06T01:36:31.011Z,9.84
2017-11-06T01:37:11.625Z,9.8
2017-11-06T01:37:52.230Z,9.74
2017-11-06T01:38:32.835Z,9.83
2017-11-06T01:39:13.419Z,9.82
2017-11-06T01:39:54.034Z,9.79
2017-11-06T01:40:34.625Z,9.8
2017-11-06T01:41:15.211Z,9.84
2017-11-06T01:41:55.788Z,9.87
2017-11-06T01:42:36.380Z,9.77
2017-11-06T01:43:16.992Z,9.73
2017-11-06T01:43:57.558Z,9.73
2017-11-06T01:44:38.154Z,9.84
2017-11-06T01:45:18.723Z,9.89
2017-11-06T01:45:59.331Z,9.79
2017-11-06T01:46:39.867Z,9.82
2017-11-06T01:47:20.437Z,9.84
2017-11-06T01:48:01.018Z,9.77
2017-11-06T01:48:41.619Z,9.82
2017-11-06T01:49:22.230Z,9.83
2017-11-06T01:50:02.810Z,9.84
2017-11-06T01:50:43.389Z,9.83
2017-11-06T01:51:23.974Z,9.82
2017-11-06T01:52:04.543Z,9.84
2017-11-06T01:52:45.123Z,9.8
2017-11-06T01:53:25.717Z,9.87
2017-11-06T01:54:06.311Z,9.8
2017-11-06T01:54:46.903Z,9.87
2017-11-06T01:55:27.487Z,9.82
2017-11-06T01:56:08.087Z,9.77
2017-11-06T01:56:48.677Z,9.83
2017-11-06T01:57:29.275Z,9.87
2017-11-06T01:58:09.841Z,9.76
2017-11-06T01:58:50.412Z,9.8
2017-11-06T01:59:30.985Z,9.86
2017-11-06T02:00:11.601Z,9.87
2017-11-06T02:00:52.164Z,9.79
2017-11-06T02:01:32.755Z,9.77
2017-11-06T02:02:13.364Z,9.79
2017-11-06T02:02:53.939Z,9.82
2017-11-06T02:03:34.528Z,9.76
2017-11-06T02:04:15.170Z,9.74
2017-11-06T02:04:55.719Z,9.74
2017-11-06T02:05:36.308Z,9.79
2017-11-06T02:06:16.879Z,9.77
2017-11-06T02:06:57.464Z,9.74
2017-11-06T02:07:38.052Z,9.74
2017-11-06T02:08:18.625Z,9.73
2017-11-06T02:08:59.215Z,9.79
2017-11-06T02:09:39.846Z,9.72
2017-11-06T02:10:20.401Z,9.73
2017-11-06T02:11:00.969Z,9.69
2017-11-06T02:11:41.580Z,9.77
2017-11-06T02:12:22.192Z,9.76
2017-11-06T02:13:02.768Z,9.68
2017-11-06T02:13:43.356Z,9.79
2017-11-06T02:14:23.938Z,9.66
2017-11-06T02:15:04.544Z,9.72
2017-11-06T02:15:45.156Z,9.8
2017-11-06T02:16:25.763Z,9.74
2017-11-06T02:17:06.322Z,9.76
2017-11-06T02:17:46.892Z,9.74
2017-11-06T02:18:27.508Z,9.73
2017-11-06T02:19:08.098Z,9.76
2017-11-06T02:19:48.673Z,9.76
2017-11-06T02:20:29.237Z,9.68
2017-11-06T02:21:09.811Z,9.69
2017-11-06T02:21:50.406Z,9.76
2017-11-06T02:22:30.983Z,9.68
2017-11-06T02:23:11.549Z,9.74
2017-11-06T02:23:52.160Z,9.76
2017-11-06T02:24:32.709Z,9.73
2017-11-06T02:25:13.317Z,9.73
2017-11-06T02:25:53.887Z,9.73
2017-11-06T02:26:34.473Z,9.76
2017-11-06T02:27:15.086Z,9.69
2017-11-06T02:27:55.665Z,9.73
2017-11-06T02:28:36.248Z,9.72
2017-11-06T02:29:16.876Z,9.73
2017-11-06T02:29:57.433Z,9.69
2017-11-06T02:30:38.066Z,9.74
2017-11-06T02:31:18.641Z,9.76
2017-11-06T02:31:59.290Z,9.72
2017-11-06T02:32:39.920Z,9.68
2017-11-06T02:33:20.502Z,9.72
2017-11-06T02:34:01.094Z,9.72
2017-11-06T02:34:41.667Z,9.72
2017-11-06T02:35:22.250Z,9.76
2017-11-06T02:36:02.852Z,9.79
2017-11-06T02:36:43.431Z,9.73
2017-11-06T02:37:24.030Z,9.65
2017-11-06T02:38:04.634Z,9.74
2017-11-06T02:38:45.214Z,9.72
2017-11-06T02:39:25.806Z,9.76
2017-11-06T02:40:06.389Z,9.68
2017-11-06T02:40:46.949Z,9.69
2017-11-06T02:41:27.540Z,9.74
2017-11-06T02:42:08.133Z,9.72
2017-11-06T02:42:48.715Z,9.77
2017-11-06T02:43:29.291Z,9.73
2017-11-06T02:44:09.868Z,9.76
2017-11-06T02:44:50.482Z,9.73
2017-11-06T02:45:31.078Z,9.8
2017-11-06T02:46:11.673Z,9.69
2017-11-06T02:46:52.245Z,9.76
2017-11-06T02:47:32.831Z,9.76
2017-11-06T02:48:13.410Z,9.76
2017-11-06T02:48:53.998Z,9.68
2017-11-06T02:49:34.574Z,9.69
2017-11-06T02:50:15.146Z,9.77
2017-11-06T02:50:55.745Z,9.68
2017-11-06T02:51:36.392Z,9.73
2017-11-06T02:52:16.953Z,9.68
2017-11-06T02:52:57.549Z,9.69
2017-11-06T02:53:38.130Z,9.69
2017-11-06T02:54:18.764Z,9.61
2017-11-06T02:54:59.309Z,9.8
2017-11-06T02:55:39.921Z,9.65
2017-11-06T02:56:20.505Z,9.68
2017-11-06T02:57:01.087Z,9.64
2017-11-06T02:57:41.680Z,9.73
2017-11-06T02:58:22.295Z,9.74
2017-11-06T02:59:02.882Z,9.74
2017-11-06T02:59:43.494Z,9.72
2017-11-06T03:00:24.159Z,9.77
2017-11-06T03:01:04.752Z,9.76
2017-11-06T03:01:45.321Z,9.64
2017-11-06T03:02:25.909Z,9.82
2017-11-06T03:03:06.487Z,9.66
2017-11-06T03:03:47.109Z,9.74
2017-11-06T03:04:27.671Z,9.79
2017-11-06T03:05:08.256Z,9.74
2017-11-06T03:05:48.824Z,9.72
2017-11-06T03:06:29.389Z,9.68
2017-11-06T03:07:09.964Z,9.8
2017-11-06T03:07:50.590Z,9.68
2017-11-06T03:08:31.186Z,9.68
2017-11-06T03:09:11.742Z,9.8
2017-11-06T03:09:52.352Z,9.74
2017-11-06T03:10:32.926Z,9.66
2017-11-06T03:11:13.578Z,9.69
2017-11-06T03:11:54.164Z,9.61
2017-11-06T03:12:34.754Z,9.77
2017-11-06T03:13:15.335Z,9.73
2017-11-06T03:13:55.891Z,9.66
2017-11-06T03:14:36.535Z,9.69
2017-11-06T03:15:17.127Z,9.74
2017-11-06T03:15:57.713Z,9.69
2017-11-06T03:16:38.339Z,9.73
2017-11-06T03:17:18.938Z,9.69
2017-11-06T03:17:59.510Z,9.69
2017-11-06T03:18:40.097Z,9.73
2017-11-06T03:19:20.671Z,9.77
2017-11-06T03:20:01.243Z,9.73
2017-11-06T03:20:41.833Z,9.74
2017-11-06T03:21:22.418Z,9.74
2017-11-06T03:22:03.033Z,9.59
2017-11-06T03:22:43.588Z,9.69
2017-11-06T03:23:24.180Z,9.66
2017-11-06T03:24:04.777Z,9.66
2017-11-06T03:24:45.405Z,9.62
2017-11-06T03:25:25.982Z,9.64
2017-11-06T03:26:06.588Z,9.62
2017-11-06T03:26:47.187Z,9.58
2017-11-06T03:27:27.759Z,9.5
2017-11-06T03:28:08.391Z,9.58
2017-11-06T03:28:48.951Z,9.64
2017-11-06T03:29:29.548Z,9.61
2017-11-06T03:30:10.138Z,9.58
2017-11-06T03:30:50.694Z,9.61
2017-11-06T03:31:31.272Z,9.61
2017-11-06T03:32:11.860Z,9.56
2017-11-06T03:32:52.459Z,9.59
2017-11-06T03:33:33.033Z,9.62
2017-11-06T03:34:13.623Z,9.65
2017-11-06T03:34:54.218Z,9.65
2017-11-06T03:35:34.819Z,9.64
2017-11-06T03:36:15.423Z,9.65
2017-11-06T03:36:56.008Z,9.66
2017-11-06T03:37:36.594Z,9.58
2017-11-06T03:38:17.172Z,9.62
2017-11-06T03:38:57.742Z,9.68
2017-11-06T03:39:38.317Z,9.62
2017-11-06T03:40:18.887Z,9.64
2017-11-06T03:40:59.497Z,9.65
2017-11-06T03:41:40.090Z,9.62
2017-11-06T03:42:20.700Z,9.64
2017-11-06T03:43:01.290Z,9.65
2017-11-06T03:43:41.896Z,9.59
2017-11-06T03:44:22.510Z,9.65
2017-11-06T03:45:03.079Z,9.62
2017-11-06T03:45:43.651Z,9.64
2017-11-06T03:46:24.209Z,9.58
2017-11-06T03:47:04.860Z,9.65
2017-11-06T03:47:45.408Z,9.61
2017-11-06T03:48:26.042Z,9.65
2017-11-06T03:49:06.638Z,9.68
2017-11-06T03:49:47.242Z,9.68
2017-11-06T03:50:27.807Z,9.65
2017-11-06T03:51:08.386Z,9.65
2017-11-06T03:51:48.950Z,9.62
2017-11-06T03:52:29.532Z,9.62
2017-11-06T03:53:10.123Z,9.61
2017-11-06T03:53:50.730Z,9.65
2017-11-06T03:54:31.320Z,9.68
2017-11-06T03:55:11.926Z,9.69
2017-11-06T03:55:52.492Z,9.62
2017-11-06T03:56:33.073Z,9.64
2017-11-06T03:57:13.646Z,9.66
2017-11-06T03:57:54.239Z,9.62
2017-11-06T03:58:34.818Z,9.59
2017-11-06T03:59:15.388Z,9.61
2017-11-06T03:59:55.959Z,9.58
2017-11-06T04:00:36.564Z,9.65
2017-11-06T04:01:17.172Z,9.61
2017-11-06T04:01:57.750Z,9.65
2017-11-06T04:02:38.314Z,9.65
2017-11-06T04:03:18.901Z,9.61
2017-11-06T04:03:59.503Z,9.69
2017-11-06T04:04:40.111Z,9.65
2017-11-06T04:05:20.707Z,9.65
2017-11-06T04:06:01.292Z,9.61
2017-11-06T04:06:41.884Z,9.62
2017-11-06T04:07:22.479Z,9.59
2017-11-06T04:08:03.070Z,9.64
2017-11-06T04:08:43.662Z,9.66
2017-11-06T04:09:24.231Z,9.65
2017-11-06T04:10:04.808Z,9.66
2017-11-06T04:10:45.416Z,9.62
2017-11-06T04:11:25.965Z,9.61
2017-11-06T04:12:06.534Z,9.55
2017-11-06T04:12:47.143Z,9.61
2017-11-06T04:13:27.708Z,9.59
2017-11-06T04:14:08.282Z,9.68
2017-11-06T04:14:48.859Z,9.61
2017-11-06T04:15:29.448Z,9.55
2017-11-06T04:16:10.034Z,9.5
2017-11-06T04:16:50.603Z,9.54
2017-11-06T04:17:31.229Z,9.54
2017-11-06T04:18:11.813Z,9.58
2017-11-06T04:18:52.419Z,9.51
2017-11-06T04:19:32.998Z,9.51
2017-11-06T04:20:13.585Z,9.59
2017-11-06T04:20:54.156Z,9.51
2017-11-06T04:21:34.764Z,9.58
2017-11-06T04:22:15.333Z,9.54
2017-11-06T04:22:55.923Z,9.54
2017-11-06T04:23:36.483Z,9.47
2017-11-06T04:24:17.067Z,9.47
2017-11-06T04:24:57.639Z,9.51
2017-11-06T04:25:38.234Z,9.55
2017-11-06T04:26:18.812Z,9.55
2017-11-06T04:26:59.430Z,9.48
2017-11-06T04:27:40.017Z,9.51
2017-11-06T04:28:20.594Z,9.47
2017-11-06T04:29:01.192Z,9.59
2017-11-06T04:29:41.768Z,9.48
2017-11-06T04:30:22.353Z,9.46
2017-11-06T04:31:02.965Z,9.51
2017-11-06T04:31:43.532Z,9.55
2017-11-06T04:32:24.146Z,9.5
2017-11-06T04:33:04.737Z,9.55
2017-11-06T04:33:45.333Z,9.56
2017-11-06T04:34:25.939Z,9.54
2017-11-06T04:35:06.555Z,9.5
2017-11-06T04:35:47.168Z,9.55
2017-11-06T04:36:27.740Z,9.51
2017-11-06T04:37:08.335Z,9.54
2017-11-06T04:37:48.905Z,9.51
2017-11-06T04:38:29.471Z,9.55
2017-11-06T04:39:10.041Z,9.51
2017-11-06T04:39:50.637Z,9.54
2017-11-06T04:40:31.249Z,9.51
2017-11-06T04:41:11.777Z,9.5
2017-11-06T04:41:52.373Z,9.48
2017-11-06T04:42:32.968Z,9.55
2017-11-06T04:43:13.533Z,9.47
2017-11-06T04:43:54.122Z,9.48
2017-11-06T04:44:34.686Z,9.47
2017-11-06T04:45:15.274Z,9.48
2017-11-06T04:45:55.865Z,9.46
2017-11-06T04:46:36.445Z,9.56
2017-11-06T04:47:17.061Z,9.46
2017-11-06T04:47:57.681Z,9.46
2017-11-06T04:48:38.233Z,9.47
2017-11-06T04:49:18.814Z,9.5
2017-11-06T04:49:59.464Z,9.46
2017-11-06T04:50:40.073Z,9.54
2017-11-06T04:51:20.676Z,9.44
2017-11-06T04:52:01.269Z,9.41
2017-11-06T04:52:41.858Z,9.5
2017-11-06T04:53:22.510Z,9.47
2017-11-06T04:54:03.125Z,9.39
2017-11-06T04:54:43.723Z,9.34
2017-11-06T04:55:24.328Z,9.41
2017-11-06T04:56:04.920Z,9.37
2017-11-06T04:56:45.542Z,9.36
2017-11-06T04:57:26.126Z,9.36
2017-11-06T04:58:06.746Z,9.29
2017-11-06T04:58:47.330Z,9.26
2017-11-06T04:59:27.944Z,9.23
2017-11-06T05:00:08.533Z,9.23
2017-11-06T05:00:49.149Z,9.18
2017-11-06T05:01:29.842Z,9.26
2017-11-06T05:02:10.456Z,9.26
2017-11-06T05:02:51.182Z,9.19
2017-11-06T05:03:31.759Z,9.18
2017-11-06T05:04:12.345Z,9.23
2017-11-06T05:04:52.934Z,9.25
2017-11-06T05:05:33.561Z,9.18
2017-11-06T05:06:14.132Z,9.22
2017-11-06T05:06:54.721Z,9.11
2017-11-06T05:07:35.336Z,9.18
2017-11-06T05:08:15.929Z,9.21
2017-11-06T05:08:56.522Z,9.25
2017-11-06T05:09:37.096Z,9.23
2017-11-06T05:10:17.675Z,9.18
2017-11-06T05:10:58.243Z,9.29
2017-11-06T05:11:38.835Z,9.23
2017-11-06T05:12:19.441Z,9.21
2017-11-06T05:13:00.035Z,9.14
2017-11-06T05:13:40.567Z,9.26
2017-11-06T05:14:21.137Z,9.22
2017-11-06T05:15:01.712Z,9.18
2017-11-06T05:15:42.284Z,9.19
2017-11-06T05:16:22.869Z,9.18
2017-11-06T05:17:03.440Z,9.22
2017-11-06T05:17:44.046Z,9.18
2017-11-06T05:18:24.602Z,9.21
2017-11-06T05:19:05.186Z,9.21
2017-11-06T05:19:45.796Z,9.22
2017-11-06T05:20:26.378Z,9.19
2017-11-06T05:21:06.955Z,9.23
2017-11-06T05:21:47.521Z,9.31
2017-11-06T05:22:28.115Z,9.22
2017-11-06T05:23:08.696Z,9.13
2017-11-06T05:23:49.260Z,9.29
2017-11-06T05:24:29.837Z,9.16
2017-11-06T05:25:10.412Z,9.25
2017-11-06T05:25:51.022Z,9.25
2017-11-06T05:26:31.660Z,9.16
2017-11-06T05:27:12.224Z,9.11
2017-11-06T05:27:52.836Z,9.16
2017-11-06T05:28:33.440Z,9.18
2017-11-06T05:29:14.021Z,9.21
2017-11-06T05:29:54.638Z,9.23
2017-11-06T05:30:35.194Z,9.28
2017-11-06T05:31:15.770Z,9.21
2017-11-06T05:31:56.377Z,9.13
2017-11-06T05:32:36.989Z,9.18
2017-11-06T05:33:17.590Z,9.18
2017-11-06T05:33:58.259Z,9.14
2017-11-06T05:34:38.847Z,9.14
2017-11-06T05:35:19.435Z,9.08
2017-11-06T05:36:00.063Z,9.11
2017-11-06T05:36:40.646Z,9.1
2017-11-06T05:37:21.246Z,9.02
2017-11-06T05:38:01.865Z,9.16
2017-11-06T05:38:42.414Z,9.02
2017-11-06T05:39:22.985Z,9.11
2017-11-06T05:40:03.577Z,9.04
2017-11-06T05:40:44.213Z,9.03
2017-11-06T05:41:24.808Z,9.1
2017-11-06T05:42:05.443Z,8.99
2017-11-06T05:42:46.052Z,9.13
2017-11-06T05:43:26.616Z,9.03
2017-11-06T05:44:07.219Z,9.03
2017-11-06T05:44:47.886Z,9.1
2017-11-06T05:45:28.456Z,9.16
2017-11-06T05:46:09.076Z,9.06
2017-11-06T05:46:49.685Z,9.02
2017-11-06T05:47:30.313Z,9.06
2017-11-06T05:48:10.885Z,9.14
2017-11-06T05:48:51.448Z,9
2017-11-06T05:49:32.018Z,8.99
2017-11-06T05:50:12.652Z,9.1
2017-11-06T05:50:53.278Z,9.03
2017-11-06T05:51:33.844Z,9
2017-11-06T05:52:14.407Z,9.02
2017-11-06T05:52:55.010Z,8.99
2017-11-06T05:53:35.601Z,9
2017-11-06T05:54:16.197Z,8.97
2017-11-06T05:54:56.809Z,9.08
2017-11-06T05:55:37.384Z,8.99
2017-11-06T05:56:17.967Z,9.06
2017-11-06T05:56:58.544Z,8.97
2017-11-06T05:57:39.139Z,9
2017-11-06T05:58:19.713Z,9.04
2017-11-06T05:59:00.363Z,8.97
2017-11-06T05:59:40.941Z,8.95
2017-11-06T06:00:21.535Z,8.97
2017-11-06T06:01:02.121Z,8.91
2017-11-06T06:01:42.694Z,8.89
2017-11-06T06:02:23.261Z,8.95
2017-11-06T06:03:03.845Z,8.91
2017-11-06T06:03:44.431Z,8.91
2017-11-06T06:04:25.018Z,8.91
2017-11-06T06:05:05.596Z,8.94
2017-11-06T06:05:46.181Z,8.92
2017-11-06T06:06:26.869Z,8.88
2017-11-06T06:07:07.579Z,8.99
2017-11-06T06:07:48.201Z,8.87
2017-11-06T06:08:28.776Z,8.89
2017-11-06T06:09:09.365Z,8.95
2017-11-06T06:09:50.014Z,8.91
2017-11-06T06:10:30.676Z,8.94
2017-11-06T06:11:11.323Z,8.87
2017-11-06T06:11:52.143Z,8.91
2017-11-06T06:12:32.771Z,8.87
2017-11-06T06:13:13.374Z,8.95
2017-11-06T06:13:53.941Z,8.94
2017-11-06T06:14:34.529Z,8.88
2017-11-06T06:15:15.096Z,8.95
2017-11-06T06:15:55.689Z,8.91
2017-11-06T06:16:36.278Z,8.89
2017-11-06T06:17:16.903Z,8.91
2017-11-06T06:17:57.444Z,8.92
2017-11-06T06:18:38.098Z,8.85
2017-11-06T06:19:18.684Z,8.92
2017-11-06T06:19:59.297Z,8.92
2017-11-06T06:20:39.905Z,8.89
2017-11-06T06:21:20.508Z,8.91
2017-11-06T06:22:01.146Z,8.89
2017-11-06T06:22:41.758Z,8.88
2017-11-06T06:23:22.379Z,8.91
2017-11-06T06:24:03.014Z,8.91
2017-11-06T06:24:43.619Z,8.92
2017-11-06T06:25:24.237Z,8.91
2017-11-06T06:26:04.825Z,8.89
2017-11-06T06:26:45.407Z,8.92
2017-11-06T06:27:26.003Z,9.22
2017-11-06T06:28:06.586Z,9.32
2017-11-06T06:29:54.429Z,9.55
2017-11-06T06:30:35.017Z,9.59
2017-11-06T06:31:15.635Z,9.51
2017-11-06T06:31:56.215Z,9.55
2017-11-06T06:32:36.800Z,9.59
2017-11-06T06:33:17.375Z,9.69
2017-11-06T06:33:57.961Z,9.73
2017-11-06T06:34:38.571Z,9.84
2017-11-06T06:35:19.162Z,9.94
2017-11-06T06:35:59.748Z,10.02
2017-11-06T06:36:40.322Z,10.17
2017-11-06T06:37:20.894Z,10.25
2017-11-06T06:38:01.495Z,10.33
2017-11-06T06:38:42.059Z,10.51
2017-11-06T06:39:22.750Z,10.54
2017-11-06T06:40:03.331Z,10.64
2017-11-06T06:40:43.921Z,10.76
2017-11-06T06:41:24.530Z,10.87
2017-11-06T06:42:05.130Z,10.9
2017-11-06T06:42:45.698Z,10.87
2017-11-06T06:43:26.302Z,10.87
2017-11-06T06:44:06.877Z,10.92
2017-11-06T06:44:47.447Z,11
2017-11-06T06:45:28.022Z,11.08
2017-11-06T06:46:08.625Z,11.04
2017-11-06T06:46:49.203Z,10.9
2017-11-06T06:47:29.791Z,10.87
2017-11-06T06:48:10.437Z,10.71
2017-11-06T06:48:50.999Z,10.76
2017-11-06T06:49:31.567Z,10.61
2017-11-06T06:50:12.153Z,10.59
2017-11-06T06:50:52.741Z,10.63
2017-11-06T06:51:33.340Z,10.59
2017-11-06T06:52:13.995Z,10.51
2017-11-06T06:52:54.590Z,10.57
2017-11-06T06:53:35.212Z,10.44
2017-11-06T06:54:15.856Z,10.37
2017-11-06T06:54:56.484Z,10.28
2017-11-06T06:55:37.108Z,10.19
2017-11-06T06:56:17.808Z,10.2
2017-11-06T06:56:58.524Z,10.1
2017-11-06T06:57:39.270Z,10.02
2017-11-06T06:58:19.911Z,9.94
2017-11-06T06:59:00.455Z,9.83
2017-11-06T06:59:41.107Z,9.79
2017-11-06T07:00:22.453Z,9.74
2017-11-06T07:01:03.014Z,9.73
2017-11-06T07:01:43.678Z,9.72
2017-11-06T07:02:24.317Z,9.68
2017-11-06T07:03:04.877Z,9.61
2017-11-06T07:03:45.456Z,9.59
2017-11-06T07:04:26.065Z,9.61
2017-11-06T07:05:06.649Z,9.5
2017-11-06T07:05:47.230Z,9.47
2017-11-06T07:06:27.811Z,9.55
2017-11-06T07:07:08.376Z,9.48
2017-11-06T07:07:48.983Z,9.36
2017-11-06T07:08:29.555Z,9.4
2017-11-06T07:09:10.150Z,9.36
2017-11-06T07:09:50.777Z,9.32
2017-11-06T07:10:32.086Z,9.28
2017-11-06T07:11:12.732Z,9.31
2017-11-06T07:11:53.341Z,9.25
2017-11-06T07:12:33.940Z,9.23
2017-11-06T07:13:14.833Z,9.25
2017-11-06T07:13:55.429Z,9.21
2017-11-06T07:14:36.045Z,9.23
2017-11-06T07:15:18.048Z,9.21
2017-11-06T07:15:59.409Z,9.16
2017-11-06T07:16:40.886Z,9.23
2017-11-06T07:17:21.571Z,9.29
2017-11-06T07:18:02.175Z,9.18
2017-11-06T07:18:42.752Z,9.23
2017-11-06T07:19:23.459Z,9.21
2017-11-06T07:20:04.058Z,9.14
2017-11-06T07:20:44.644Z,9.19
2017-11-06T07:21:25.326Z,9.23
2017-11-06T07:22:05.915Z,9.13
2017-11-06T07:22:46.509Z,9.18
2017-11-06T07:23:27.092Z,9.16
2017-11-06T07:24:07.703Z,9.13
2017-11-06T07:24:48.465Z,9.19
2017-11-06T07:25:28.968Z,9.11
2017-11-06T07:26:09.581Z,9.08
2017-11-06T07:26:50.219Z,9.19
2017-11-06T07:27:30.838Z,9.14
2017-11-06T07:28:11.505Z,9.14
2017-11-06T07:28:52.247Z,9.25
2017-11-06T07:29:32.798Z,9.18
2017-11-06T07:30:13.680Z,9.23
2017-11-06T07:30:54.266Z,9.16
2017-11-06T07:31:34.951Z,9.21
2017-11-06T07:32:15.542Z,9.22
2017-11-06T07:32:56.181Z,9.22
2017-11-06T07:33:36.879Z,9.22
2017-11-06T07:34:17.441Z,9.21
2017-11-06T07:34:58.069Z,9.21
2017-11-06T07:35:38.717Z,9.19
2017-11-06T07:36:19.302Z,9.23
2017-11-06T07:36:59.928Z,9.25
2017-11-06T07:37:40.584Z,9.23
2017-11-06T07:38:21.245Z,9.19
2017-11-06T07:39:01.868Z,9.32
2017-11-06T07:39:42.470Z,9.19
2017-11-06T07:40:23.123Z,9.28
2017-11-06T07:41:03.798Z,9.21
2017-11-06T07:41:44.512Z,9.21
2017-11-06T07:42:25.125Z,9.22
2017-11-06T07:43:05.757Z,9.21
2017-11-06T07:43:46.339Z,9.19
2017-11-06T07:44:26.983Z,9.22
2017-11-06T07:45:07.641Z,9.26
2017-11-06T07:45:48.360Z,9.22
2017-11-06T07:46:29.036Z,9.19
2017-11-06T07:47:09.618Z,9.16
2017-11-06T07:47:50.254Z,9.25
2017-11-06T07:48:30.863Z,9.26
2017-11-06T07:49:11.472Z,9.23
2017-11-06T07:49:52.055Z,9.29
2017-11-06T07:50:32.632Z,9.25
2017-11-06T07:51:13.201Z,9.23
2017-11-06T07:51:53.812Z,9.23
2017-11-06T07:52:34.543Z,9.25
2017-11-06T07:53:15.096Z,9.23
2017-11-06T07:53:55.755Z,9.29
2017-11-06T07:54:36.365Z,9.19
2017-11-06T07:55:17.051Z,9.32
2017-11-06T07:55:57.700Z,9.31
2017-11-06T07:56:38.497Z,9.28
2017-11-06T07:57:19.124Z,9.34
2017-11-06T07:57:59.748Z,9.4
2017-11-06T07:58:40.358Z,9.36
2017-11-06T07:59:21.004Z,9.36
2017-11-06T08:00:01.632Z,9.36
2017-11-06T08:00:42.260Z,9.4
2017-11-06T08:01:22.882Z,9.41
2017-11-06T08:02:03.529Z,9.37
2017-11-06T08:02:44.113Z,9.37
2017-11-06T08:03:24.769Z,9.47
2017-11-06T08:04:05.367Z,9.47
2017-11-06T08:04:45.973Z,9.47
2017-11-06T08:05:26.583Z,9.51
2017-11-06T08:06:07.233Z,9.5
2017-11-06T08:06:47.790Z,9.54
2017-11-06T08:07:28.447Z,9.48
2017-11-06T08:08:09.076Z,9.51
2017-11-06T08:08:49.673Z,9.55
2017-11-06T08:09:30.319Z,9.47
2017-11-06T08:10:10.902Z,9.48
2017-11-06T08:10:51.510Z,9.48
2017-11-06T08:11:32.104Z,9.48
2017-11-06T08:12:12.722Z,9.47
2017-11-06T08:12:53.366Z,9.48
2017-11-06T08:13:33.985Z,9.4
2017-11-06T08:14:14.632Z,9.51
2017-11-06T08:14:55.285Z,9.55
2017-11-06T08:15:35.886Z,9.48
2017-11-06T08:16:16.520Z,9.56
2017-11-06T08:16:57.224Z,9.54
2017-11-06T08:17:37.789Z,9.47
2017-11-06T08:18:18.388Z,9.55
2017-11-06T08:18:58.988Z,9.51
2017-11-06T08:19:39.591Z,9.43
2017-11-06T08:20:20.221Z,9.5
2017-11-06T08:21:00.856Z,9.47
2017-11-06T08:21:41.480Z,9.5
2017-11-06T08:22:22.069Z,9.46
2017-11-06T08:23:02.680Z,9.46
2017-11-06T08:23:43.276Z,9.46
2017-11-06T08:24:23.959Z,9.46
2017-11-06T08:25:04.521Z,9.48
2017-11-06T08:25:45.137Z,9.48
2017-11-06T08:26:25.710Z,9.5
2017-11-06T08:27:06.341Z,9.51
2017-11-06T08:27:47.025Z,9.5
2017-11-06T08:28:27.671Z,9.44
2017-11-06T08:29:08.325Z,9.44
2017-11-06T08:29:48.910Z,9.47
2017-11-06T08:30:29.550Z,9.55
2017-11-06T08:31:10.218Z,9.51
2017-11-06T08:31:50.860Z,9.54
2017-11-06T08:32:31.469Z,9.44
2017-11-06T08:33:12.126Z,9.48
2017-11-06T08:33:52.778Z,9.47
2017-11-06T08:34:33.384Z,9.44
2017-11-06T08:35:14.122Z,9.48
2017-11-06T08:35:54.688Z,9.44
2017-11-06T08:36:35.381Z,9.46
2017-11-06T08:37:15.983Z,9.48
2017-11-06T08:37:56.644Z,9.54
2017-11-06T08:38:37.306Z,9.39
2017-11-06T08:39:17.990Z,9.48
2017-11-06T08:39:58.662Z,9.43
2017-11-06T08:40:39.351Z,9.4
2017-11-06T08:41:20.017Z,9.37
2017-11-06T08:42:00.717Z,9.44
2017-11-06T08:42:41.390Z,9.46
2017-11-06T08:43:22.035Z,9.36
2017-11-06T08:44:02.664Z,9.51
2017-11-06T08:44:43.331Z,9.47
2017-11-06T08:45:23.949Z,9.44
2017-11-06T08:46:04.551Z,9.48
2017-11-06T08:46:45.140Z,9.4
2017-11-06T08:47:25.736Z,9.36
2017-11-06T08:48:06.340Z,9.51
2017-11-06T08:48:46.958Z,9.48
2017-11-06T08:49:27.581Z,9.46
2017-11-06T08:50:08.149Z,9.44
2017-11-06T08:50:48.751Z,9.48
2017-11-06T08:51:29.359Z,9.56
2017-11-06T08:52:09.969Z,9.55
2017-11-06T08:52:50.554Z,9.48
2017-11-06T08:53:31.200Z,9.5
2017-11-06T08:54:11.828Z,9.55
2017-11-06T08:54:52.602Z,9.48
2017-11-06T08:55:33.201Z,9.48
2017-11-06T08:56:13.760Z,9.55
2017-11-06T08:56:54.374Z,9.61
2017-11-06T08:57:35.027Z,9.5
2017-11-06T08:58:15.665Z,9.48
2017-11-06T08:58:56.309Z,9.55
2017-11-06T08:59:36.896Z,9.48
2017-11-06T09:00:17.502Z,9.5